Flight Track Log - Related Links

Times and Time Zones

All times are in EDT time to prevent confusion due to time zone crossing. See the N1944E flight status page for this flight to view local times or setup timezone preferences in your user account.

Time Position Orientation Groundspeed Altitude Reporting Facility
EDT Latitude Longitude Course Direction KTS MPH feet Rate Location/Type
Thu 12:15:49 PM 47.6419 -116.5250 127° Southeast 147 169 7,900  Level Salt Lake Center
Thu 12:16:51 PM 47.6092 -116.4817 138° Southeast 153 176 8,600 677 Climbing Salt Lake Center
Thu 12:17:53 PM 47.5819 -116.4325 129° Southeast 155 178 9,300 720 Climbing Salt Lake Center
Thu 12:18:56 PM 47.5547 -116.3819 129° Southeast 158 182 10,100 774 Climbing Seattle Center
Thu 12:19:57 PM 47.5267 -116.3322 130° Southeast 157 181 10,900 829 Climbing Seattle Center
Thu 12:20:59 PM 47.4919 -116.2719 130° Southeast 159 183 11,800 829 Climbing Seattle Center
Thu 12:21:00 PM 47.5989 -116.5145 127° Southeast  Level FlightAware Approximate
Thu 12:22:00 PM 47.4625 -116.2211 131° Southeast 161 185 12,600  Level Seattle Center
Thu 12:23:01 PM 47.4306 -116.1700 133° Southeast 164 189 13,400 787 Climbing Seattle Center
Thu 12:24:02 PM 47.4000 -116.1208 133° Southeast 164 189 14,200 732 Climbing Seattle Center
Thu 12:25:04 PM 47.3700 -116.0700 131° Southeast 164 189 14,900 787 Climbing Seattle Center
Thu 12:26:04 PM 47.3403 -116.0181 130° Southeast 165 190 15,800 787 Climbing Seattle Center
Thu 12:27:06 PM 47.3108 -115.9661 130° Southeast 166 191 16,500 683 Climbing Seattle Center
Thu 12:28:07 PM 47.2811 -115.9125 129° Southeast 167 192 17,200 590 Climbing Seattle Center
Thu 12:29:08 PM 47.2494 -115.8586 131° Southeast 171 197 17,700 590 Climbing Seattle Center
Thu 12:30:09 PM 47.2158 -115.8028 132° Southeast 178 205 18,400 639 Climbing Seattle Center
Thu 12:31:10 PM 47.1758 -115.7350 131° Southeast 182 209 19,000 293 Climbing Seattle Center
Thu 12:32:12 PM 47.1392 -115.6750 132° Southeast 193 222 19,000  Level Seattle Center
Thu 12:33:13 PM 47.1008 -115.6131 132° Southeast 202 232 19,000  Level Seattle Center
Thu 12:34:14 PM 47.0633 -115.5503 131° Southeast 203 234 19,000  Level Seattle Center
Thu 12:35:15 PM 47.0275 -115.4894 131° Southeast 199 229 19,000  Level Seattle Center
Thu 12:36:30 PM 46.9850 -115.4181 131° Southeast 199 229 19,000  Level Salt Lake Center
Thu 12:37:18 PM 46.9572 -115.3678 129° Southeast 199 229 19,000  Level Seattle Center
Thu 12:38:19 PM 46.9214 -115.3067 131° Southeast 199 229 19,000  Level Seattle Center
Thu 12:39:21 PM 46.8778 -115.2344 131° Southeast 198 228 19,000  Level Seattle Center
Thu 12:40:22 PM 46.8425 -115.1744 131° Southeast 197 227 19,000  Level Seattle Center
Thu 12:41:23 PM 46.8058 -115.1139 131° Southeast 198 228 19,000  Level Seattle Center
Thu 12:42:25 PM 46.7692 -115.0542 132° Southeast 198 228 19,000  Level Seattle Center
Thu 12:43:26 PM 46.7314 -114.9942 133° Southeast 200 230 19,000  Level Seattle Center
Thu 12:44:27 PM 46.6956 -114.9350 131° Southeast 197 227 19,000  Level Seattle Center
Thu 12:45:29 PM 46.6603 -114.8731 130° Southeast 199 229 19,000  Level Seattle Center
Thu 12:46:30 PM 46.6250 -114.8128 130° Southeast 197 227 19,000  Level Seattle Center
Thu 12:47:31 PM 46.5897 -114.7539 131° Southeast 195 224 19,000  Level Seattle Center
Thu 12:48:32 PM 46.5461 -114.6836 132° Southeast 195 224 19,000  Level Seattle Center
Thu 12:49:34 PM 46.5089 -114.6247 133° Southeast 198 228 19,000  Level Seattle Center
Thu 12:50:35 PM 46.4731 -114.5639 131° Southeast 198 228 19,000  Level Seattle Center
Thu 12:51:37 PM 46.4367 -114.5064 133° Southeast 196 226 19,000  Level Seattle Center
Thu 12:52:38 PM 46.4000 -114.4497 133° Southeast 194 223 19,000  Level Seattle Center
Thu 12:53:39 PM 46.3639 -114.3908 132° Southeast 195 224 19,000  Level Seattle Center
Thu 12:54:40 PM 46.3275 -114.3328 132° Southeast 195 224 19,000  Level Seattle Center
Thu 12:55:42 PM 46.2917 -114.2733 131° Southeast 196 226 19,000  Level Seattle Center
Thu 12:56:43 PM 46.2539 -114.2197 136° Southeast 193 222 19,000  Level Seattle Center
Thu 12:57:44 PM 46.2039 -114.1564 139° Southeast 198 228 19,000  Level Seattle Center
Thu 12:59:16 PM 46.1517 -114.0753 133° Southeast 198 228 19,000  Level Salt Lake Center
Thu 01:00:18 PM 46.1142 -114.0164 133° Southeast 199 229 19,000  Level Salt Lake Center
Thu 01:01:20 PM 46.0722 -113.9456 130° Southeast 197 227 19,000  Level Salt Lake Center
Thu 01:02:22 PM 46.0364 -113.8864 131° Southeast 196 226 19,000  Level Salt Lake Center
Thu 01:03:24 PM 46.0008 -113.8281 131° Southeast 196 226 19,000  Level Salt Lake Center
Thu 01:04:26 PM 45.9639 -113.7706 133° Southeast 196 226 19,000  Level Salt Lake Center
Thu 01:05:28 PM 45.9283 -113.7128 131° Southeast 195 224 19,000  Level Salt Lake Center
Thu 01:06:30 PM 45.8922 -113.6556 132° Southeast 195 224 19,000 48 Level Salt Lake Center
Thu 01:07:32 PM 45.8472 -113.5875 133° Southeast 193 222 19,100  Climbing Salt Lake Center
Thu 01:08:34 PM 45.8142 -113.5336 131° Southeast 192 221 19,000  Descending Salt Lake Center
Thu 01:09:36 PM 45.7750 -113.4717 132° Southeast 189 217 19,100 48 Climbing Salt Lake Center
Thu 01:10:38 PM 45.7414 -113.4186 132° Southeast 188 216 19,100  Level Salt Lake Center
Thu 01:11:40 PM 45.7064 -113.3631 132° Southeast 194 223 19,100  Level Salt Lake Center
Thu 01:12:42 PM 45.6664 -113.3025 133° Southeast 189 217 19,100  Level Salt Lake Center
Thu 01:13:44 PM 45.6325 -113.2506 133° Southeast 188 216 19,100  Level Salt Lake Center
Thu 01:14:45 PM 45.5906 -113.1875 134° Southeast 192 221 19,100  Level Salt Lake Center
Thu 01:15:47 PM 45.5569 -113.1347 132° Southeast 190 219 19,100  Level Salt Lake Center
Thu 01:16:49 PM 45.5175 -113.0694 131° Southeast 192 221 19,100  Level Salt Lake Center
Thu 01:17:51 PM 45.4831 -113.0167 133° Southeast 191 220 19,100  Level Salt Lake Center
Thu 01:18:53 PM 45.4422 -112.9544 133° Southeast 192 221 19,100  Level Salt Lake Center
Thu 01:19:55 PM 45.4064 -112.9008 134° Southeast 193 222 19,100  Level Salt Lake Center
Thu 01:20:57 PM 45.3658 -112.8381 133° Southeast 193 222 19,100  Level Salt Lake Center
Thu 01:21:59 PM 45.3322 -112.7842 132° Southeast 193 222 19,100  Level Salt Lake Center
Thu 01:23:01 PM 45.2917 -112.7203 132° Southeast 193 222 19,100  Level Salt Lake Center
Thu 01:24:03 PM 45.2567 -112.6661 133° Southeast 194 223 19,100  Level Salt Lake Center
Thu 01:25:05 PM 45.2217 -112.6117 132° Southeast 195 224 19,100  Level Salt Lake Center
Thu 01:26:07 PM 45.1803 -112.5483 133° Southeast 196 226 19,100  Level Salt Lake Center
Thu 01:27:09 PM 45.1447 -112.4947 133° Southeast 195 224 19,100  Level Salt Lake Center
Thu 01:28:11 PM 45.1028 -112.4328 134° Southeast 196 226 19,100  Level Salt Lake Center
Thu 01:29:13 PM 45.0661 -112.3794 134° Southeast 196 226 19,100  Level Salt Lake Center
Thu 01:30:15 PM 45.0244 -112.3167 133° Southeast 197 227 19,100  Level Salt Lake Center
Thu 01:31:17 PM 44.9886 -112.2625 133° Southeast 197 227 19,100  Level Salt Lake Center
Thu 01:32:19 PM 44.9478 -112.1994 132° Southeast 196 226 19,100  Level Salt Lake Center
Thu 01:33:21 PM 44.9119 -112.1456 133° Southeast 196 226 19,100  Level Salt Lake Center
Thu 01:34:23 PM 44.8700 -112.0825 133° Southeast 197 227 19,100  Level Salt Lake Center
Thu 01:35:25 PM 44.8336 -112.0283 133° Southeast 198 228 19,100  Level Salt Lake Center
Thu 01:36:27 PM 44.7911 -111.9650 133° Southeast 199 229 19,100  Level Salt Lake Center
Thu 01:37:29 PM 44.7542 -111.9117 134° Southeast 199 229 19,100  Level Salt Lake Center
Thu 01:38:31 PM 44.7175 -111.8575 134° Southeast 199 229 19,100  Level Salt Lake Center
Thu 01:39:33 PM 44.6742 -111.7944 134° Southeast 201 231 19,100  Level Salt Lake Center
Thu 01:40:35 PM 44.6378 -111.7397 133° Southeast 200 230 19,100  Level Salt Lake Center
Thu 01:41:37 PM 44.5953 -111.6761 133° Southeast 201 231 19,100  Level Salt Lake Center
Thu 01:42:39 PM 44.5589 -111.6217 133° Southeast 201 231 19,100  Level Salt Lake Center
Thu 01:43:41 PM 44.5167 -111.5586 133° Southeast 201 231 19,100  Level Salt Lake Center
Thu 01:44:43 PM 44.4744 -111.4956 133° Southeast 201 231 19,100  Level Salt Lake Center
Thu 01:45:45 PM 44.4378 -111.4422 134° Southeast 201 231 19,100 -97 Level Salt Lake Center
Thu 01:46:47 PM 44.3942 -111.3797 134° Southeast 201 231 18,900 -290 Descending Salt Lake Center
Thu 01:47:49 PM 44.3539 -111.3228 135° Southeast 207 238 18,500 -435 Descending Salt Lake Center
Thu 01:48:51 PM 44.3056 -111.2547 135° Southeast 216 249 18,000 -339 Descending Salt Lake Center
Thu 01:49:53 PM 44.2644 -111.1953 134° Southeast 220 253 17,800 -387 Descending Salt Lake Center
Thu 01:50:55 PM 44.2231 -111.1364 134° Southeast 221 254 17,200 -435 Descending Salt Lake Center
Thu 01:51:57 PM 44.1742 -111.0650 134° Southeast 225 259 16,900 -192 Descending Salt Lake Center
Thu 01:53:00 PM 44.1364 -111.0078 133° Southeast 216 249 16,800 -432 Descending Salt Lake Center
Thu 01:54:02 PM 44.0911 -110.9411 133° Southeast 211 243 16,000 -823 Descending Salt Lake Center
Thu 01:55:04 PM 44.0497 -110.8806 134° Southeast 220 253 15,100 -919 Descending Salt Lake Center
Thu 01:56:06 PM 44.0047 -110.8056 130° Southeast 224 258 14,100 -532 Descending Salt Lake Center
Thu 01:57:08 PM 43.9642 -110.7475 134° Southeast 217 250 14,000 -48 Descending Salt Lake Center
Thu 01:58:10 PM 43.9286 -110.6964 134° Southeast 192 221 14,000 -532 Level Salt Lake Center
Thu 01:59:12 PM 43.8856 -110.6525 144° Southeast 195 224 12,900 -1,161 Descending Salt Lake Center
Thu 02:00:14 PM 43.8272 -110.6625 187° South 211 243 11,600 -1,548 Descending Salt Lake Center
Thu 02:01:16 PM 43.7553 -110.6808 190° South 215 247 9,700 -1,500 Descending Salt Lake Center
Thu 02:02:18 PM 43.7006 -110.6958 191° South 210 242 8,500 -871 Descending Salt Lake Center
Thu 02:03:20 PM 43.6633 -110.7106 196° South 166 191 7,900 -774 Descending Salt Lake Center
Thu 02:04:22 PM 43.6303 -110.7269 200° South 140 161 6,900 -677 Descending Salt Lake Center
Thu 02:05:24 PM 43.5950 -110.7442 199° South 132 152 6,500 -387 Descending Salt Lake Center

Login

Don't have an account? Register now (free) for customized features, flight alerts, and more!